sensor_id;sensor_type;location;lat;lon;timestamp;temperature;humidity
62904;DHT22;49000;50.698;13.322;2022-07-06T00:01:10;15.00;99.90
62904;DHT22;49000;50.698;13.322;2022-07-06T00:03:35;15.00;99.90
62904;DHT22;49000;50.698;13.322;2022-07-06T00:06:00;15.00;99.90
62904;DHT22;49000;50.698;13.322;2022-07-06T00:08:26;15.00;99.90
62904;DHT22;49000;50.698;13.322;2022-07-06T00:10:52;15.00;99.90
62904;DHT22;49000;50.698;13.322;2022-07-06T00:13:17;14.90;99.90
62904;DHT22;49000;50.698;13.322;2022-07-06T00:15:43;14.80;99.90
62904;DHT22;49000;50.698;13.322;2022-07-06T00:18:08;14.70;99.90
62904;DHT22;49000;50.698;13.322;2022-07-06T00:20:34;14.70;99.90
62904;DHT22;49000;50.698;13.322;2022-07-06T00:22:59;14.60;99.90
62904;DHT22;49000;50.698;13.322;2022-07-06T00:25:25;14.60;99.90
62904;DHT22;49000;50.698;13.322;2022-07-06T00:27:50;14.60;99.90
62904;DHT22;49000;50.698;13.322;2022-07-06T00:30:16;14.60;99.90
62904;DHT22;49000;50.698;13.322;2022-07-06T00:32:41;14.60;99.90
62904;DHT22;49000;50.698;13.322;2022-07-06T00:35:07;14.60;99.90
62904;DHT22;49000;50.698;13.322;2022-07-06T00:37:32;14.60;99.90
62904;DHT22;49000;50.698;13.322;2022-07-06T00:39:58;14.60;99.90
62904;DHT22;49000;50.698;13.322;2022-07-06T00:42:23;14.50;99.90
62904;DHT22;49000;50.698;13.322;2022-07-06T00:44:49;14.50;99.90
62904;DHT22;49000;50.698;13.322;2022-07-06T00:47:15;14.50;99.90
62904;DHT22;49000;50.698;13.322;2022-07-06T00:49:40;14.50;99.90
62904;DHT22;49000;50.698;13.322;2022-07-06T00:52:24;14.50;99.90
62904;DHT22;49000;50.698;13.322;2022-07-06T00:54:50;14.50;99.90
62904;DHT22;49000;50.698;13.322;2022-07-06T00:57:16;14.50;99.90
62904;DHT22;49000;50.698;13.322;2022-07-06T00:59:42;14.50;99.90
62904;DHT22;49000;50.698;13.322;2022-07-06T01:02:08;14.40;99.90
62904;DHT22;49000;50.698;13.322;2022-07-06T01:04:33;14.40;99.90
62904;DHT22;49000;50.698;13.322;2022-07-06T01:07:00;14.40;99.90
62904;DHT22;49000;50.698;13.322;2022-07-06T01:09:25;14.40;99.90
62904;DHT22;49000;50.698;13.322;2022-07-06T01:11:52;14.40;99.90
62904;DHT22;49000;50.698;13.322;2022-07-06T01:14:18;14.40;99.90
62904;DHT22;49000;50.698;13.322;2022-07-06T01:16:44;14.50;99.90
62904;DHT22;49000;50.698;13.322;2022-07-06T01:19:09;14.40;99.90
62904;DHT22;49000;50.698;13.322;2022-07-06T01:21:37;14.40;99.90
62904;DHT22;49000;50.698;13.322;2022-07-06T01:24:03;14.40;99.90
62904;DHT22;49000;50.698;13.322;2022-07-06T01:26:29;14.40;99.90
62904;DHT22;49000;50.698;13.322;2022-07-06T01:28:55;14.40;99.90
62904;DHT22;49000;50.698;13.322;2022-07-06T01:31:22;14.40;99.90
62904;DHT22;49000;50.698;13.322;2022-07-06T01:33:49;14.30;99.90
62904;DHT22;49000;50.698;13.322;2022-07-06T01:36:16;14.30;99.90
62904;DHT22;49000;50.698;13.322;2022-07-06T01:39:08;14.40;99.90
62904;DHT22;49000;50.698;13.322;2022-07-06T01:41:33;14.40;99.90
62904;DHT22;49000;50.698;13.322;2022-07-06T01:43:59;14.40;99.90
62904;DHT22;49000;50.698;13.322;2022-07-06T01:46:25;14.40;99.90
62904;DHT22;49000;50.698;13.322;2022-07-06T01:48:50;14.40;99.90
62904;DHT22;49000;50.698;13.322;2022-07-06T01:51:16;14.40;99.90
62904;DHT22;49000;50.698;13.322;2022-07-06T01:53:42;14.40;99.90
62904;DHT22;49000;50.698;13.322;2022-07-06T01:56:08;14.00;99.90
62904;DHT22;49000;50.698;13.322;2022-07-06T01:58:34;13.70;99.90
62904;DHT22;49000;50.698;13.322;2022-07-06T02:01:00;13.80;99.90
62904;DHT22;49000;50.698;13.322;2022-07-06T02:03:25;13.90;99.90
62904;DHT22;49000;50.698;13.322;2022-07-06T02:05:51;13.90;99.90
62904;DHT22;49000;50.698;13.322;2022-07-06T02:08:17;14.00;99.90
62904;DHT22;49000;50.698;13.322;2022-07-06T02:10:43;14.00;99.90
62904;DHT22;49000;50.698;13.322;2022-07-06T02:13:08;14.00;99.90
62904;DHT22;49000;50.698;13.322;2022-07-06T02:15:34;14.10;99.90
62904;DHT22;49000;50.698;13.322;2022-07-06T02:17:59;14.10;99.90
62904;DHT22;49000;50.698;13.322;2022-07-06T02:20:25;14.10;99.90
62904;DHT22;49000;50.698;13.322;2022-07-06T02:22:50;14.10;99.90
62904;DHT22;49000;50.698;13.322;2022-07-06T02:25:16;14.20;99.90
62904;DHT22;49000;50.698;13.322;2022-07-06T02:27:41;14.20;99.90
62904;DHT22;49000;50.698;13.322;2022-07-06T02:30:07;14.20;99.90
62904;DHT22;49000;50.698;13.322;2022-07-06T02:32:33;14.10;99.90
62904;DHT22;49000;50.698;13.322;2022-07-06T02:34:58;14.00;99.90
62904;DHT22;49000;50.698;13.322;2022-07-06T02:37:24;14.00;99.90
62904;DHT22;49000;50.698;13.322;2022-07-06T02:39:49;14.00;99.90
62904;DHT22;49000;50.698;13.322;2022-07-06T02:42:15;14.00;99.90
62904;DHT22;49000;50.698;13.322;2022-07-06T02:44:40;14.00;99.90
62904;DHT22;49000;50.698;13.322;2022-07-06T02:47:06;14.10;99.90
62904;DHT22;49000;50.698;13.322;2022-07-06T02:49:31;14.10;99.90
62904;DHT22;49000;50.698;13.322;2022-07-06T02:51:57;14.10;99.90
62904;DHT22;49000;50.698;13.322;2022-07-06T02:54:22;14.20;99.90
62904;DHT22;49000;50.698;13.322;2022-07-06T02:56:48;14.20;99.90
62904;DHT22;49000;50.698;13.322;2022-07-06T02:59:17;14.10;99.90
62904;DHT22;49000;50.698;13.322;2022-07-06T03:01:43;14.30;99.90
62904;DHT22;49000;50.698;13.322;2022-07-06T03:04:08;14.10;99.90
62904;DHT22;49000;50.698;13.322;2022-07-06T03:06:34;14.10;99.90
62904;DHT22;49000;50.698;13.322;2022-07-06T03:08:59;14.10;99.90
62904;DHT22;49000;50.698;13.322;2022-07-06T03:11:25;14.00;99.90
62904;DHT22;49000;50.698;13.322;2022-07-06T03:13:51;14.10;99.90
62904;DHT22;49000;50.698;13.322;2022-07-06T03:16:17;14.00;99.90
62904;DHT22;49000;50.698;13.322;2022-07-06T03:18:42;14.00;99.90
62904;DHT22;49000;50.698;13.322;2022-07-06T03:21:08;14.00;99.90
62904;DHT22;49000;50.698;13.322;2022-07-06T03:23:33;13.80;99.90
62904;DHT22;49000;50.698;13.322;2022-07-06T03:25:59;13.70;99.90
62904;DHT22;49000;50.698;13.322;2022-07-06T03:28:24;13.70;99.90
62904;DHT22;49000;50.698;13.322;2022-07-06T03:30:50;13.70;99.90
62904;DHT22;49000;50.698;13.322;2022-07-06T03:33:15;13.60;99.90
62904;DHT22;49000;50.698;13.322;2022-07-06T03:35:40;13.60;99.90
62904;DHT22;49000;50.698;13.322;2022-07-06T03:38:06;13.50;99.90
62904;DHT22;49000;50.698;13.322;2022-07-06T03:40:31;13.50;99.90
62904;DHT22;49000;50.698;13.322;2022-07-06T03:42:57;13.50;99.90
62904;DHT22;49000;50.698;13.322;2022-07-06T03:45:22;13.40;99.90
62904;DHT22;49000;50.698;13.322;2022-07-06T03:47:48;13.40;99.90
62904;DHT22;49000;50.698;13.322;2022-07-06T03:50:13;13.30;99.90
62904;DHT22;49000;50.698;13.322;2022-07-06T03:52:39;13.30;99.90
62904;DHT22;49000;50.698;13.322;2022-07-06T03:55:10;13.20;99.90
62904;DHT22;49000;50.698;13.322;2022-07-06T03:57:37;13.20;99.90
62904;DHT22;49000;50.698;13.322;2022-07-06T04:00:04;13.20;99.90
62904;DHT22;49000;50.698;13.322;2022-07-06T04:02:29;13.10;99.90
62904;DHT22;49000;50.698;13.322;2022-07-06T04:04:55;13.10;99.90
62904;DHT22;49000;50.698;13.322;2022-07-06T04:07:20;13.00;99.90
62904;DHT22;49000;50.698;13.322;2022-07-06T04:09:46;12.90;99.90
62904;DHT22;49000;50.698;13.322;2022-07-06T04:12:11;12.90;99.90
62904;DHT22;49000;50.698;13.322;2022-07-06T04:14:37;12.90;99.90
62904;DHT22;49000;50.698;13.322;2022-07-06T04:17:02;12.90;99.90
62904;DHT22;49000;50.698;13.322;2022-07-06T04:19:46;12.90;99.90
62904;DHT22;49000;50.698;13.322;2022-07-06T04:22:12;12.90;99.90
62904;DHT22;49000;50.698;13.322;2022-07-06T04:24:37;12.90;99.90
62904;DHT22;49000;50.698;13.322;2022-07-06T04:27:03;12.90;99.90
62904;DHT22;49000;50.698;13.322;2022-07-06T04:29:28;12.90;99.90
62904;DHT22;49000;50.698;13.322;2022-07-06T04:31:54;12.90;99.90
62904;DHT22;49000;50.698;13.322;2022-07-06T04:34:20;12.90;99.90
62904;DHT22;49000;50.698;13.322;2022-07-06T04:36:45;12.90;99.90
62904;DHT22;49000;50.698;13.322;2022-07-06T04:39:10;12.90;99.90
62904;DHT22;49000;50.698;13.322;2022-07-06T04:41:36;12.90;99.90
62904;DHT22;49000;50.698;13.322;2022-07-06T04:44:01;12.90;99.90
62904;DHT22;49000;50.698;13.322;2022-07-06T04:46:27;13.00;99.90
62904;DHT22;49000;50.698;13.322;2022-07-06T04:48:52;13.00;99.90
62904;DHT22;49000;50.698;13.322;2022-07-06T04:51:18;13.00;99.90
62904;DHT22;49000;50.698;13.322;2022-07-06T04:53:43;13.10;99.90
62904;DHT22;49000;50.698;13.322;2022-07-06T04:56:09;13.10;99.90
62904;DHT22;49000;50.698;13.322;2022-07-06T04:58:34;13.20;99.90
62904;DHT22;49000;50.698;13.322;2022-07-06T05:01:00;13.20;99.90
62904;DHT22;49000;50.698;13.322;2022-07-06T05:03:25;13.30;99.90
62904;DHT22;49000;50.698;13.322;2022-07-06T05:05:51;13.30;99.90
62904;DHT22;49000;50.698;13.322;2022-07-06T05:08:16;13.40;99.90
62904;DHT22;49000;50.698;13.322;2022-07-06T05:10:42;13.50;99.90
62904;DHT22;49000;50.698;13.322;2022-07-06T05:13:07;13.60;99.90
62904;DHT22;49000;50.698;13.322;2022-07-06T05:15:33;13.70;99.90
62904;DHT22;49000;50.698;13.322;2022-07-06T05:17:58;13.80;99.90
62904;DHT22;49000;50.698;13.322;2022-07-06T05:20:24;13.90;99.90
62904;DHT22;49000;50.698;13.322;2022-07-06T05:22:49;14.00;99.90
62904;DHT22;49000;50.698;13.322;2022-07-06T05:25:15;14.00;99.90
62904;DHT22;49000;50.698;13.322;2022-07-06T05:27:40;14.10;99.90
62904;DHT22;49000;50.698;13.322;2022-07-06T05:30:06;14.20;99.90
62904;DHT22;49000;50.698;13.322;2022-07-06T05:32:32;14.30;99.90
62904;DHT22;49000;50.698;13.322;2022-07-06T05:34:57;14.40;99.90
62904;DHT22;49000;50.698;13.322;2022-07-06T05:37:23;14.40;99.90
62904;DHT22;49000;50.698;13.322;2022-07-06T05:39:48;14.50;99.90
62904;DHT22;49000;50.698;13.322;2022-07-06T05:42:15;14.50;99.90
62904;DHT22;49000;50.698;13.322;2022-07-06T05:44:41;14.50;99.90
62904;DHT22;49000;50.698;13.322;2022-07-06T05:47:06;14.50;99.90
62904;DHT22;49000;50.698;13.322;2022-07-06T05:49:51;14.60;99.90
62904;DHT22;49000;50.698;13.322;2022-07-06T05:52:35;14.70;99.90
62904;DHT22;49000;50.698;13.322;2022-07-06T05:55:00;14.80;99.90
62904;DHT22;49000;50.698;13.322;2022-07-06T05:57:26;14.70;99.90
62904;DHT22;49000;50.698;13.322;2022-07-06T05:59:51;14.80;99.90
62904;DHT22;49000;50.698;13.322;2022-07-06T06:02:17;15.00;99.90
62904;DHT22;49000;50.698;13.322;2022-07-06T06:04:43;15.00;99.90
62904;DHT22;49000;50.698;13.322;2022-07-06T06:07:08;15.20;99.90
62904;DHT22;49000;50.698;13.322;2022-07-06T06:09:33;15.40;99.90
62904;DHT22;49000;50.698;13.322;2022-07-06T06:11:59;15.60;99.90
62904;DHT22;49000;50.698;13.322;2022-07-06T06:14:24;15.70;99.90
62904;DHT22;49000;50.698;13.322;2022-07-06T06:16:50;15.60;99.90
62904;DHT22;49000;50.698;13.322;2022-07-06T06:19:15;15.80;99.90
62904;DHT22;49000;50.698;13.322;2022-07-06T06:21:41;16.10;99.90
62904;DHT22;49000;50.698;13.322;2022-07-06T06:24:07;16.00;99.90
62904;DHT22;49000;50.698;13.322;2022-07-06T06:26:32;16.20;99.90
62904;DHT22;49000;50.698;13.322;2022-07-06T06:28:58;16.50;99.90
62904;DHT22;49000;50.698;13.322;2022-07-06T06:31:23;16.80;99.90
62904;DHT22;49000;50.698;13.322;2022-07-06T06:33:49;17.10;99.90
62904;DHT22;49000;50.698;13.322;2022-07-06T06:36:14;17.30;99.90
62904;DHT22;49000;50.698;13.322;2022-07-06T06:38:40;17.60;99.90
62904;DHT22;49000;50.698;13.322;2022-07-06T06:41:05;18.00;99.90
62904;DHT22;49000;50.698;13.322;2022-07-06T06:43:31;18.40;99.90
62904;DHT22;49000;50.698;13.322;2022-07-06T06:45:56;18.60;99.90
62904;DHT22;49000;50.698;13.322;2022-07-06T06:48:22;18.50;99.90
62904;DHT22;49000;50.698;13.322;2022-07-06T06:50:47;18.10;99.90
62904;DHT22;49000;50.698;13.322;2022-07-06T06:53:13;17.80;99.90
62904;DHT22;49000;50.698;13.322;2022-07-06T06:55:38;17.70;99.90
62904;DHT22;49000;50.698;13.322;2022-07-06T06:58:04;17.60;99.90
62904;DHT22;49000;50.698;13.322;2022-07-06T07:00:30;17.50;99.90
62904;DHT22;49000;50.698;13.322;2022-07-06T07:02:55;17.70;99.90
62904;DHT22;49000;50.698;13.322;2022-07-06T07:05:21;17.80;99.90
62904;DHT22;49000;50.698;13.322;2022-07-06T07:07:46;18.00;99.90
62904;DHT22;49000;50.698;13.322;2022-07-06T07:10:12;18.30;99.90
62904;DHT22;49000;50.698;13.322;2022-07-06T07:12:47;18.40;99.90
62904;DHT22;49000;50.698;13.322;2022-07-06T07:15:14;18.50;99.90
62904;DHT22;49000;50.698;13.322;2022-07-06T07:17:40;18.30;99.90
62904;DHT22;49000;50.698;13.322;2022-07-06T07:20:06;18.20;99.90
62904;DHT22;49000;50.698;13.322;2022-07-06T07:22:32;18.50;99.90
62904;DHT22;49000;50.698;13.322;2022-07-06T07:24:57;18.90;99.90
62904;DHT22;49000;50.698;13.322;2022-07-06T07:27:24;18.40;99.90
62904;DHT22;49000;50.698;13.322;2022-07-06T07:29:50;18.60;99.90
62904;DHT22;49000;50.698;13.322;2022-07-06T07:32:15;19.30;99.90
62904;DHT22;49000;50.698;13.322;2022-07-06T07:34:41;19.70;94.70
62904;DHT22;49000;50.698;13.322;2022-07-06T07:37:06;19.80;84.10
62904;DHT22;49000;50.698;13.322;2022-07-06T07:39:32;19.80;80.30
62904;DHT22;49000;50.698;13.322;2022-07-06T07:41:57;19.80;86.90
62904;DHT22;49000;50.698;13.322;2022-07-06T07:44:23;19.90;85.90
62904;DHT22;49000;50.698;13.322;2022-07-06T07:46:50;20.20;85.50
62904;DHT22;49000;50.698;13.322;2022-07-06T07:49:18;19.90;77.70
62904;DHT22;49000;50.698;13.322;2022-07-06T07:51:44;19.70;78.50
62904;DHT22;49000;50.698;13.322;2022-07-06T07:54:12;19.50;89.30
62904;DHT22;49000;50.698;13.322;2022-07-06T07:56:37;19.60;80.50
62904;DHT22;49000;50.698;13.322;2022-07-06T07:59:06;19.60;80.00
62904;DHT22;49000;50.698;13.322;2022-07-06T08:01:31;19.80;77.70
62904;DHT22;49000;50.698;13.322;2022-07-06T08:03:57;19.90;63.50
62904;DHT22;49000;50.698;13.322;2022-07-06T08:06:23;19.70;62.40
62904;DHT22;49000;50.698;13.322;2022-07-06T08:08:48;19.00;66.50
62904;DHT22;49000;50.698;13.322;2022-07-06T08:11:14;19.40;73.60
62904;DHT22;49000;50.698;13.322;2022-07-06T08:13:40;20.20;64.00
62904;DHT22;49000;50.698;13.322;2022-07-06T08:16:05;20.90;37.70
62904;DHT22;49000;50.698;13.322;2022-07-06T08:18:31;20.90;27.20
62904;DHT22;49000;50.698;13.322;2022-07-06T08:20:57;20.60;30.90
62904;DHT22;49000;50.698;13.322;2022-07-06T08:23:23;20.80;37.50
62904;DHT22;49000;50.698;13.322;2022-07-06T08:25:49;21.60;29.30
62904;DHT22;49000;50.698;13.322;2022-07-06T08:28:14;22.00;29.40
62904;DHT22;49000;50.698;13.322;2022-07-06T08:30:40;21.50;24.50
62904;DHT22;49000;50.698;13.322;2022-07-06T08:33:05;21.30;25.60
62904;DHT22;49000;50.698;13.322;2022-07-06T08:35:31;21.60;24.30
62904;DHT22;49000;50.698;13.322;2022-07-06T08:37:57;21.60;23.90
62904;DHT22;49000;50.698;13.322;2022-07-06T08:40:22;22.10;19.90
62904;DHT22;49000;50.698;13.322;2022-07-06T08:42:53;22.10;14.30
62904;DHT22;49000;50.698;13.322;2022-07-06T08:45:19;21.50;14.10
62904;DHT22;49000;50.698;13.322;2022-07-06T08:47:49;21.40;19.30
62904;DHT22;49000;50.698;13.322;2022-07-06T08:50:15;21.50;16.70
62904;DHT22;49000;50.698;13.322;2022-07-06T08:52:42;21.70;17.00
62904;DHT22;49000;50.698;13.322;2022-07-06T08:55:10;21.90;10.20
62904;DHT22;49000;50.698;13.322;2022-07-06T08:57:37;21.60;15.60
62904;DHT22;49000;50.698;13.322;2022-07-06T09:00:06;22.10;16.90
62904;DHT22;49000;50.698;13.322;2022-07-06T09:02:32;22.20;10.80
62904;DHT22;49000;50.698;13.322;2022-07-06T09:05:00;21.80;11.10
62904;DHT22;49000;50.698;13.322;2022-07-06T09:07:28;21.80;13.50
62904;DHT22;49000;50.698;13.322;2022-07-06T09:09:55;22.10;9.90
62904;DHT22;49000;50.698;13.322;2022-07-06T09:12:21;22.70;8.90
62904;DHT22;49000;50.698;13.322;2022-07-06T09:14:47;23.60;5.90
62904;DHT22;49000;50.698;13.322;2022-07-06T09:17:13;23.80;1.00
62904;DHT22;49000;50.698;13.322;2022-07-06T09:19:38;23.70;2.30
62904;DHT22;49000;50.698;13.322;2022-07-06T09:22:05;24.20;3.70
62904;DHT22;49000;50.698;13.322;2022-07-06T09:24:30;23.90;1.00
62904;DHT22;49000;50.698;13.322;2022-07-06T09:26:58;22.60;3.60
62904;DHT22;49000;50.698;13.322;2022-07-06T09:29:30;22.40;5.80
62904;DHT22;49000;50.698;13.322;2022-07-06T09:31:58;22.60;4.60
62904;DHT22;49000;50.698;13.322;2022-07-06T09:34:24;23.00;3.30
62904;DHT22;49000;50.698;13.322;2022-07-06T09:36:50;23.50;1.90
62904;DHT22;49000;50.698;13.322;2022-07-06T09:39:28;23.00;5.10
62904;DHT22;49000;50.698;13.322;2022-07-06T09:41:56;23.50;3.20
62904;DHT22;49000;50.698;13.322;2022-07-06T09:44:35;24.10;1.00
62904;DHT22;49000;50.698;13.322;2022-07-06T09:47:04;23.90;1.40
62904;DHT22;49000;50.698;13.322;2022-07-06T09:49:30;24.30;1.80
62904;DHT22;49000;50.698;13.322;2022-07-06T09:51:59;24.10;1.30
62904;DHT22;49000;50.698;13.322;2022-07-06T09:54:26;23.70;1.00
62904;DHT22;49000;50.698;13.322;2022-07-06T09:56:53;23.90;1.00
62904;DHT22;49000;50.698;13.322;2022-07-06T09:59:21;22.90;2.90
62904;DHT22;49000;50.698;13.322;2022-07-06T10:01:51;23.70;3.60
62904;DHT22;49000;50.698;13.322;2022-07-06T10:04:17;24.60;1.00
62904;DHT22;49000;50.698;13.322;2022-07-06T10:06:45;24.10;1.00
62904;DHT22;49000;50.698;13.322;2022-07-06T10:09:12;24.90;1.00
62904;DHT22;49000;50.698;13.322;2022-07-06T10:11:49;25.20;1.00
62904;DHT22;49000;50.698;13.322;2022-07-06T10:14:18;24.00;1.00
62904;DHT22;49000;50.698;13.322;2022-07-06T10:16:45;24.60;1.00
62904;DHT22;49000;50.698;13.322;2022-07-06T10:19:11;24.10;1.00
62904;DHT22;49000;50.698;13.322;2022-07-06T10:21:40;23.30;1.00
62904;DHT22;49000;50.698;13.322;2022-07-06T10:24:07;23.10;1.00
62904;DHT22;49000;50.698;13.322;2022-07-06T10:26:35;22.90;1.00
62904;DHT22;49000;50.698;13.322;2022-07-06T10:29:02;23.10;1.00
62904;DHT22;49000;50.698;13.322;2022-07-06T10:31:29;23.70;1.00
62904;DHT22;49000;50.698;13.322;2022-07-06T10:34:06;24.80;1.00
62904;DHT22;49000;50.698;13.322;2022-07-06T10:36:41;25.20;1.00
62904;DHT22;49000;50.698;13.322;2022-07-06T10:39:07;25.30;1.00
62904;DHT22;49000;50.698;13.322;2022-07-06T10:41:51;25.10;1.00
62904;DHT22;49000;50.698;13.322;2022-07-06T10:44:24;25.30;1.00
62904;DHT22;49000;50.698;13.322;2022-07-06T10:46:54;24.20;1.00
62904;DHT22;49000;50.698;13.322;2022-07-06T10:49:21;23.40;1.00
62904;DHT22;49000;50.698;13.322;2022-07-06T10:51:48;24.30;1.00
62904;DHT22;49000;50.698;13.322;2022-07-06T10:54:15;24.40;1.00
62904;DHT22;49000;50.698;13.322;2022-07-06T10:56:49;23.80;1.00
62904;DHT22;49000;50.698;13.322;2022-07-06T10:59:23;24.60;1.00
62904;DHT22;49000;50.698;13.322;2022-07-06T11:02:14;24.80;1.00
62904;DHT22;49000;50.698;13.322;2022-07-06T11:04:41;25.00;1.00
62904;DHT22;49000;50.698;13.322;2022-07-06T11:07:11;25.10;1.00
62904;DHT22;49000;50.698;13.322;2022-07-06T11:09:38;25.20;1.00
62904;DHT22;49000;50.698;13.322;2022-07-06T11:12:19;24.90;1.00
62904;DHT22;49000;50.698;13.322;2022-07-06T11:14:47;24.70;1.00
62904;DHT22;49000;50.698;13.322;2022-07-06T11:17:13;24.40;1.00
62904;DHT22;49000;50.698;13.322;2022-07-06T11:19:52;25.40;1.00
62904;DHT22;49000;50.698;13.322;2022-07-06T11:22:20;25.90;1.00
62904;DHT22;49000;50.698;13.322;2022-07-06T11:24:46;26.00;1.00
62904;DHT22;49000;50.698;13.322;2022-07-06T11:27:13;25.40;1.00
62904;DHT22;49000;50.698;13.322;2022-07-06T11:29:38;25.70;1.00
62904;DHT22;49000;50.698;13.322;2022-07-06T11:32:06;25.80;1.00
62904;DHT22;49000;50.698;13.322;2022-07-06T11:34:35;26.20;1.00
62904;DHT22;49000;50.698;13.322;2022-07-06T11:37:10;26.90;1.00
62904;DHT22;49000;50.698;13.322;2022-07-06T11:39:40;26.60;1.00
62904;DHT22;49000;50.698;13.322;2022-07-06T11:42:07;26.60;1.00
62904;DHT22;49000;50.698;13.322;2022-07-06T11:44:34;25.60;1.00
62904;DHT22;49000;50.698;13.322;2022-07-06T11:47:01;25.20;1.00
62904;DHT22;49000;50.698;13.322;2022-07-06T11:49:29;25.00;1.00
62904;DHT22;49000;50.698;13.322;2022-07-06T11:51:55;25.90;1.00
62904;DHT22;49000;50.698;13.322;2022-07-06T11:54:22;26.60;1.00
62904;DHT22;49000;50.698;13.322;2022-07-06T11:56:53;26.60;1.00
62904;DHT22;49000;50.698;13.322;2022-07-06T11:59:27;26.20;1.00
62904;DHT22;49000;50.698;13.322;2022-07-06T12:04:30;26.60;1.00
62904;DHT22;49000;50.698;13.322;2022-07-06T12:07:00;27.00;1.00
62904;DHT22;49000;50.698;13.322;2022-07-06T12:09:32;26.90;1.00
62904;DHT22;49000;50.698;13.322;2022-07-06T12:11:58;26.00;1.00
62904;DHT22;49000;50.698;13.322;2022-07-06T12:14:27;26.40;1.00
62904;DHT22;49000;50.698;13.322;2022-07-06T12:16:53;27.40;1.00
62904;DHT22;49000;50.698;13.322;2022-07-06T12:19:21;27.70;1.00
62904;DHT22;49000;50.698;13.322;2022-07-06T12:21:49;26.60;1.00
62904;DHT22;49000;50.698;13.322;2022-07-06T12:24:23;27.10;1.00
62904;DHT22;49000;50.698;13.322;2022-07-06T12:26:51;26.50;1.00
62904;DHT22;49000;50.698;13.322;2022-07-06T12:29:18;26.00;1.00
62904;DHT22;49000;50.698;13.322;2022-07-06T12:31:54;25.80;1.00
62904;DHT22;49000;50.698;13.322;2022-07-06T12:34:30;27.00;1.00
62904;DHT22;49000;50.698;13.322;2022-07-06T12:36:58;27.40;1.00
62904;DHT22;49000;50.698;13.322;2022-07-06T12:39:26;27.40;1.00
62904;DHT22;49000;50.698;13.322;2022-07-06T12:41:54;26.10;1.00
62904;DHT22;49000;50.698;13.322;2022-07-06T12:44:23;25.20;1.00
62904;DHT22;49000;50.698;13.322;2022-07-06T12:47:09;25.40;1.00
62904;DHT22;49000;50.698;13.322;2022-07-06T12:49:36;27.10;1.00
62904;DHT22;49000;50.698;13.322;2022-07-06T12:52:12;26.80;1.00
62904;DHT22;49000;50.698;13.322;2022-07-06T12:54:50;27.00;1.00
62904;DHT22;49000;50.698;13.322;2022-07-06T12:57:23;27.70;1.00
62904;DHT22;49000;50.698;13.322;2022-07-06T12:59:55;28.30;1.00
62904;DHT22;49000;50.698;13.322;2022-07-06T13:02:26;29.00;1.00
62904;DHT22;49000;50.698;13.322;2022-07-06T13:04:58;29.60;1.00
62904;DHT22;49000;50.698;13.322;2022-07-06T13:07:26;29.60;1.00
62904;DHT22;49000;50.698;13.322;2022-07-06T13:09:52;29.50;1.00
62904;DHT22;49000;50.698;13.322;2022-07-06T13:12:18;29.10;1.00
62904;DHT22;49000;50.698;13.322;2022-07-06T13:14:44;28.50;1.00
62904;DHT22;49000;50.698;13.322;2022-07-06T13:17:09;28.70;1.00
62904;DHT22;49000;50.698;13.322;2022-07-06T13:19:35;28.00;1.00
62904;DHT22;49000;50.698;13.322;2022-07-06T13:22:00;27.80;1.00
62904;DHT22;49000;50.698;13.322;2022-07-06T13:24:26;27.30;1.00
62904;DHT22;49000;50.698;13.322;2022-07-06T13:26:54;28.00;1.00
62904;DHT22;49000;50.698;13.322;2022-07-06T13:29:20;28.60;1.00
62904;DHT22;49000;50.698;13.322;2022-07-06T13:31:45;28.10;1.00
62904;DHT22;49000;50.698;13.322;2022-07-06T13:34:11;28.70;1.00
62904;DHT22;49000;50.698;13.322;2022-07-06T13:36:38;27.50;1.00
62904;DHT22;49000;50.698;13.322;2022-07-06T13:39:04;26.20;1.00
62904;DHT22;49000;50.698;13.322;2022-07-06T13:41:29;26.40;1.00
62904;DHT22;49000;50.698;13.322;2022-07-06T13:43:55;26.60;1.00
62904;DHT22;49000;50.698;13.322;2022-07-06T13:46:20;26.20;1.00
62904;DHT22;49000;50.698;13.322;2022-07-06T13:48:46;25.50;1.00
62904;DHT22;49000;50.698;13.322;2022-07-06T13:51:12;24.10;1.00
62904;DHT22;49000;50.698;13.322;2022-07-06T13:53:38;24.20;1.00
62904;DHT22;49000;50.698;13.322;2022-07-06T13:56:04;24.80;1.00
62904;DHT22;49000;50.698;13.322;2022-07-06T13:58:29;26.10;1.00
62904;DHT22;49000;50.698;13.322;2022-07-06T14:00:55;26.90;1.00
62904;DHT22;49000;50.698;13.322;2022-07-06T14:03:20;27.10;1.00
62904;DHT22;49000;50.698;13.322;2022-07-06T14:05:53;26.60;1.00
62904;DHT22;49000;50.698;13.322;2022-07-06T14:08:18;26.20;1.00
62904;DHT22;49000;50.698;13.322;2022-07-06T14:10:43;26.70;1.00
62904;DHT22;49000;50.698;13.322;2022-07-06T14:13:09;26.60;1.00
62904;DHT22;49000;50.698;13.322;2022-07-06T14:15:35;26.10;1.00
62904;DHT22;49000;50.698;13.322;2022-07-06T14:18:00;26.90;1.00
62904;DHT22;49000;50.698;13.322;2022-07-06T14:20:26;28.10;1.00
62904;DHT22;49000;50.698;13.322;2022-07-06T14:22:51;28.50;1.00
62904;DHT22;49000;50.698;13.322;2022-07-06T14:25:17;28.70;1.00
62904;DHT22;49000;50.698;13.322;2022-07-06T14:27:42;29.10;1.00
62904;DHT22;49000;50.698;13.322;2022-07-06T14:30:09;27.80;1.00
62904;DHT22;49000;50.698;13.322;2022-07-06T14:32:35;26.60;1.00
62904;DHT22;49000;50.698;13.322;2022-07-06T14:35:00;26.70;1.00
62904;DHT22;49000;50.698;13.322;2022-07-06T14:37:26;26.50;1.00
62904;DHT22;49000;50.698;13.322;2022-07-06T14:39:51;26.20;1.00
62904;DHT22;49000;50.698;13.322;2022-07-06T14:42:17;25.80;1.00
62904;DHT22;49000;50.698;13.322;2022-07-06T14:44:42;25.20;1.00
62904;DHT22;49000;50.698;13.322;2022-07-06T14:47:07;25.40;1.00
62904;DHT22;49000;50.698;13.322;2022-07-06T14:49:33;25.50;1.00
62904;DHT22;49000;50.698;13.322;2022-07-06T14:51:58;27.00;1.00
62904;DHT22;49000;50.698;13.322;2022-07-06T14:54:25;27.40;1.00
62904;DHT22;49000;50.698;13.322;2022-07-06T14:56:50;27.00;1.00
62904;DHT22;49000;50.698;13.322;2022-07-06T14:59:16;26.30;1.00
62904;DHT22;49000;50.698;13.322;2022-07-06T15:01:42;26.00;1.00
62904;DHT22;49000;50.698;13.322;2022-07-06T15:04:08;26.00;1.00
62904;DHT22;49000;50.698;13.322;2022-07-06T15:06:33;26.60;1.00
62904;DHT22;49000;50.698;13.322;2022-07-06T15:08:59;26.80;1.00
62904;DHT22;49000;50.698;13.322;2022-07-06T15:11:29;26.60;1.00
62904;DHT22;49000;50.698;13.322;2022-07-06T15:13:54;25.90;1.00
62904;DHT22;49000;50.698;13.322;2022-07-06T15:16:20;25.70;1.00
62904;DHT22;49000;50.698;13.322;2022-07-06T15:18:45;25.50;1.00
62904;DHT22;49000;50.698;13.322;2022-07-06T15:21:11;26.40;1.00
62904;DHT22;49000;50.698;13.322;2022-07-06T15:23:36;27.40;1.00